createdAt,value
2023-03-20T00:05:50.634Z,100703.30
2023-03-20T00:08:21.011Z,100698.44
2023-03-20T00:11:02.649Z,100695.58
2023-03-20T00:13:37.576Z,100695.55
2023-03-20T00:16:09.383Z,100695.84
2023-03-20T00:18:39.177Z,100690.56
2023-03-20T00:21:21.562Z,100688.45
2023-03-20T00:23:55.763Z,100693.27
2023-03-20T00:26:28.962Z,100691.27
2023-03-20T00:28:59.634Z,100687.91
2023-03-20T00:31:33.978Z,100685.66
2023-03-20T00:34:08.065Z,100687.38
2023-03-20T00:36:40.045Z,100681.83
2023-03-20T00:39:16.789Z,100678.80
2023-03-20T00:41:55.526Z,100670.07
2023-03-20T00:44:35.595Z,100672.25
2023-03-20T00:47:22.860Z,100664.70
2023-03-20T00:49:53.498Z,100667.98
2023-03-20T00:52:24.964Z,100668.84
2023-03-20T00:54:54.860Z,100665.03
2023-03-20T00:57:33.322Z,100667.63
2023-03-20T01:00:37.875Z,100665.05
2023-03-20T01:03:19.943Z,100667.81
2023-03-20T01:05:52.778Z,100670.01
2023-03-20T01:08:25.170Z,100667.05
2023-03-20T01:10:57.636Z,100666.52
2023-03-20T01:13:29.604Z,100661.58
2023-03-20T01:16:00.044Z,100658.89
2023-03-20T01:18:30.057Z,100658.84
2023-03-20T01:20:59.649Z,100655.61
2023-03-20T01:23:29.141Z,100658.63
2023-03-20T01:26:03.380Z,100656.51
2023-03-20T01:28:34.812Z,100655.91
2023-03-20T01:31:08.442Z,100655.28
2023-03-20T01:33:58.164Z,100653.80
2023-03-20T01:36:27.907Z,100650.04
2023-03-20T01:39:00.689Z,100653.02
2023-03-20T01:41:30.637Z,100652.89
2023-03-20T01:44:02.078Z,100649.64
2023-03-20T01:46:35.539Z,100646.21
2023-03-20T01:49:21.973Z,100651.45
2023-03-20T01:51:58.101Z,100652.08
2023-03-20T01:54:37.868Z,100649.65
2023-03-20T01:57:15.171Z,100653.57
2023-03-20T02:00:06.562Z,100651.61
2023-03-20T02:02:50.534Z,100653.46
2023-03-20T02:05:47.091Z,100657.58
2023-03-20T02:08:33.925Z,100656.89
2023-03-20T02:11:09.650Z,100653.94
2023-03-20T02:13:39.731Z,100655.69
2023-03-20T02:16:17.666Z,100660.80
2023-03-20T02:19:01.157Z,100662.00
2023-03-20T02:21:56.222Z,100664.82
2023-03-20T02:24:53.209Z,100665.05
2023-03-20T02:27:46.294Z,100662.27
2023-03-20T02:30:57.421Z,100658.56
2023-03-20T02:33:52.180Z,100657.42
2023-03-20T02:36:52.399Z,100659.70
2023-03-20T02:39:45.221Z,100662.39
2023-03-20T02:42:18.462Z,100659.30
2023-03-20T02:44:59.415Z,100657.92
2023-03-20T02:47:40.373Z,100653.89
2023-03-20T02:50:33.119Z,100653.11
2023-03-20T02:53:21.774Z,100648.56
2023-03-20T02:56:08.089Z,100647.98
2023-03-20T02:58:45.657Z,100645.06
2023-03-20T03:01:37.009Z,100642.41
2023-03-20T03:04:27.477Z,100637.82
2023-03-20T03:07:00.071Z,100630.44
2023-03-20T03:09:33.635Z,100626.16
2023-03-20T03:12:13.119Z,100625.44
2023-03-20T03:14:57.812Z,100616.11
2023-03-20T03:17:30.288Z,100613.21
2023-03-20T03:20:04.082Z,100613.55
2023-03-20T03:22:36.207Z,100612.20
2023-03-20T03:25:07.149Z,100607.52
2023-03-20T03:27:45.169Z,100600.88
2023-03-20T03:30:25.869Z,100603.64
2023-03-20T03:33:31.126Z,100598.61
2023-03-20T03:46:51.113Z,100603.64
2023-03-20T03:49:58.186Z,100603.71
2023-03-20T03:56:30.399Z,100602.41
2023-03-20T04:03:04.378Z,100610.11
2023-03-20T04:06:15.255Z,100608.39
